Time;durP1;ratioP1;P1;durP2;ratioP2;P2;SDS_P1;SDS_P2;PMS_P1;PMS_P2;Temp;Humidity;BMP_temperature;BMP_pressure;BME280_temperature;BME280_humidity;BME280_pressure;Samples;Min_cycle;Max_cycle;Signal;HPM_P1;HPM_P2
2024/01/27 00:01:56;;;;;;;;;;;;;;;21.73;23.06;98210.06;5037864;28;1127;-74
2024/01/27 00:04:21;;;;;;;;;;;;;;;21.53;23.09;98214.97;5021326;28;1170;-73
2024/01/27 00:06:47;;;;;;;;;;;;;;;21.77;22.80;98210.78;5055496;28;735;-73
2024/01/27 00:09:12;;;;;;;;;;;;;;;21.54;23.38;98214.53;5037395;28;1906;-73
2024/01/27 00:11:38;;;;;;;;;;;;;;;21.90;23.01;98212.88;5037996;28;822;-73
2024/01/27 00:14:03;;;;;;;;;;;;;;;21.89;22.96;98212.09;5037862;28;740;-73
2024/01/27 00:16:29;;;;;;;;;;;;;;;21.75;22.89;98218.88;5037458;28;895;-74
2024/01/27 00:18:54;;;;;;;;;;;;;;;21.64;22.98;98221.19;4996567;28;1012;-73
2024/01/27 00:21:21;;;;;;;;;;;;;;;21.63;23.14;98225.25;4997288;28;1050;-73
2024/01/27 00:23:47;;;;;;;;;;;;;;;21.59;23.15;98230.19;4997111;28;1116;-73
2024/01/27 00:26:12;;;;;;;;;;;;;;;21.77;22.83;98222.09;4996758;28;1282;-74
2024/01/27 00:28:38;;;;;;;;;;;;;;;21.57;22.95;98212.88;4996918;28;1894;-73
2024/01/27 00:31:03;;;;;;;;;;;;;;;21.55;23.11;98215.31;4980885;28;923;-73
2024/01/27 00:33:29;;;;;;;;;;;;;;;21.50;23.42;98213.84;4997429;28;1378;-73
2024/01/27 00:35:54;;;;;;;;;;;;;;;21.66;22.90;98213.06;4987016;28;939;-73
2024/01/27 00:38:20;;;;;;;;;;;;;;;21.72;23.09;98214.13;5020120;28;1123;-73
2024/01/27 00:40:46;;;;;;;;;;;;;;;21.50;23.36;98213.00;4980781;28;868;-73
2024/01/27 00:43:11;;;;;;;;;;;;;;;21.80;22.82;98209.88;4980874;28;959;-74
2024/01/27 00:45:37;;;;;;;;;;;;;;;21.72;22.98;98208.47;4980624;28;1340;-73
2024/01/27 00:48:02;;;;;;;;;;;;;;;21.70;22.98;98216.59;4964640;28;1910;-73
2024/01/27 00:50:28;;;;;;;;;;;;;;;21.81;22.79;98210.66;5009350;28;1064;-74
2024/01/27 00:52:53;;;;;;;;;;;;;;;21.74;23.07;98208.00;5019693;28;984;-73
2024/01/27 00:55:19;;;;;;;;;;;;;;;21.88;22.74;98215.38;5019608;28;987;-73
2024/01/27 00:57:44;;;;;;;;;;;;;;;21.62;23.15;98203.06;5019759;28;1097;-73
2024/01/27 01:00:10;;;;;;;;;;;;;;;21.38;23.07;98216.53;5003005;28;2089;-73
2024/01/27 01:02:36;;;;;;;;;;;;;;;21.49;23.35;98211.41;5002990;28;906;-73
2024/01/27 01:05:03;;;;;;;;;;;;;;;21.75;22.77;98218.88;5002847;28;952;-73
2024/01/27 01:07:29;;;;;;;;;;;;;;;21.41;23.13;98216.47;5003323;28;1903;-73
2024/01/27 01:09:55;;;;;;;;;;;;;;;21.70;22.92;98216.59;5019444;28;735;-73
2024/01/27 01:12:20;;;;;;;;;;;;;;;21.53;23.25;98217.81;4999849;28;1672;-74
2024/01/27 01:14:46;;;;;;;;;;;;;;;21.69;22.89;98209.34;4983716;28;885;-73
2024/01/27 01:17:12;;;;;;;;;;;;;;;21.90;22.79;98201.56;4999644;28;1490;-74
2024/01/27 01:19:38;;;;;;;;;;;;;;;21.81;22.79;98202.16;5016113;28;893;-73
2024/01/27 01:22:04;;;;;;;;;;;;;;;21.85;22.71;98195.19;5022502;28;1093;-73
2024/01/27 01:24:30;;;;;;;;;;;;;;;21.84;22.72;98187.94;5022526;28;1307;-74
2024/01/27 01:26:55;;;;;;;;;;;;;;;21.58;22.79;98186.13;5039152;28;945;-73
2024/01/27 01:29:22;;;;;;;;;;;;;;;21.54;23.24;98189.03;5039241;28;1984;-73
2024/01/27 01:31:47;;;;;;;;;;;;;;;21.61;23.15;98184.47;5039099;28;1147;-73
2024/01/27 01:34:13;;;;;;;;;;;;;;;21.82;22.74;98184.75;5039279;28;756;-73
2024/01/27 01:36:38;;;;;;;;;;;;;;;21.92;22.54;98182.09;5022874;28;848;-72
2024/01/27 01:39:04;;;;;;;;;;;;;;;21.63;23.06;98179.94;5006368;28;1234;-73
2024/01/27 01:41:29;;;;;;;;;;;;;;;21.70;22.85;98182.59;5039130;28;970;-73
2024/01/27 01:43:55;;;;;;;;;;;;;;;21.63;23.01;98177.13;5037069;28;922;-73
2024/01/27 01:46:21;;;;;;;;;;;;;;;21.83;22.62;98177.84;5039245;28;876;-73
2024/01/27 01:48:47;;;;;;;;;;;;;;;21.89;22.50;98175.28;5022665;28;1906;-73
2024/01/27 01:51:12;;;;;;;;;;;;;;;21.92;22.56;98177.22;5056048;28;759;-73
2024/01/27 01:53:38;;;;;;;;;;;;;;;21.41;23.32;98165.50;5057669;28;918;-73
2024/01/27 01:56:04;;;;;;;;;;;;;;;21.24;23.22;98178.81;5019416;28;1095;-73
2024/01/27 01:58:33;;;;;;;;;;;;;;;21.38;23.09;98171.25;5019144;28;1089;-73
2024/01/27 02:01:02;;;;;;;;;;;;;;;21.83;22.49;98163.69;5019871;28;769;-73
2024/01/27 02:03:27;;;;;;;;;;;;;;;21.75;22.60;98167.13;5019229;28;908;-73
2024/01/27 02:05:53;;;;;;;;;;;;;;;21.85;22.33;98172.50;5035811;28;784;-73
2024/01/27 02:08:19;;;;;;;;;;;;;;;21.81;22.72;98171.84;5002654;28;1985;-73
2024/01/27 02:10:45;;;;;;;;;;;;;;;21.73;22.50;98166.78;5035643;28;821;-73
2024/01/27 02:13:18;;;;;;;;;;;;;;;21.78;22.48;98167.03;5018843;28;858;-74
2024/01/27 02:15:44;;;;;;;;;;;;;;;21.85;22.64;98166.84;5002727;28;1132;-73
2024/01/27 02:18:09;;;;;;;;;;;;;;;21.85;22.50;98166.84;5035622;28;862;-73
2024/01/27 02:20:35;;;;;;;;;;;;;;;21.89;22.67;98157.47;5002508;28;1285;-73
2024/01/27 02:23:04;;;;;;;;;;;;;;;21.88;22.26;98158.72;5035688;28;727;-74
2024/01/27 02:25:30;;;;;;;;;;;;;;;21.98;22.31;98154.81;5018750;28;1025;-74
2024/01/27 02:27:55;;;;;;;;;;;;;;;21.91;22.38;98152.16;5020459;28;1973;-74
2024/01/27 02:30:21;;;;;;;;;;;;;;;21.52;22.89;98151.09;5040050;28;735;-73
2024/01/27 02:32:46;;;;;;;;;;;;;;;21.66;22.86;98147.94;5023192;28;771;-73
2024/01/27 02:35:14;;;;;;;;;;;;;;;21.65;22.46;98143.47;5057462;28;837;-74
2024/01/27 02:37:39;;;;;;;;;;;;;;;21.73;22.56;98142.09;5040049;28;775;-73
2024/01/27 02:40:05;;;;;;;;;;;;;;;21.93;22.30;98150.50;5039629;28;883;-73
2024/01/27 02:42:31;;;;;;;;;;;;;;;21.69;22.79;98135.69;5039553;28;798;-73
2024/01/27 02:44:56;;;;;;;;;;;;;;;21.70;22.62;98130.84;5057346;28;845;-73
2024/01/27 02:47:22;;;;;;;;;;;;;;;21.85;22.53;98120.72;5023291;28;1914;-73
2024/01/27 02:49:47;;;;;;;;;;;;;;;21.96;22.38;98126.13;4999026;28;1189;-73
2024/01/27 02:52:13;;;;;;;;;;;;;;;21.78;22.61;98133.06;4998560;28;1009;-73
2024/01/27 02:54:39;;;;;;;;;;;;;;;21.71;22.75;98127.56;4982594;28;1084;-73
2024/01/27 02:57:05;;;;;;;;;;;;;;;21.54;22.64;98123.13;4982103;28;1086;-74
2024/01/27 02:59:30;;;;;;;;;;;;;;;21.35;23.01;98132.47;4998597;28;901;-73
2024/01/27 03:01:57;;;;;;;;;;;;;;;21.38;23.01;98125.94;4982211;28;827;-73
2024/01/27 03:04:22;;;;;;;;;;;;;;;21.54;22.96;98117.47;4998286;28;866;-73
2024/01/27 03:06:48;;;;;;;;;;;;;;;21.69;22.77;98118.72;5015010;28;779;-73
2024/01/27 03:09:13;;;;;;;;;;;;;;;21.74;22.72;98121.00;4998076;28;1987;-73
2024/01/27 03:11:39;;;;;;;;;;;;;;;21.50;22.94;98128.06;5014955;28;865;-73
2024/01/27 03:14:04;;;;;;;;;;;;;;;21.63;22.75;98133.84;4998301;28;842;-73
2024/01/27 03:16:30;;;;;;;;;;;;;;;21.77;22.55;98130.66;4981895;28;857;-74
2024/01/27 03:18:55;;;;;;;;;;;;;;;21.78;22.33;98133.06;4998490;28;917;-74
2024/01/27 03:21:21;;;;;;;;;;;;;;;21.57;22.59;98139.25;5027913;28;1132;-73
2024/01/27 03:23:46;;;;;;;;;;;;;;;21.64;22.75;98139.06;5038866;28;1106;-73
2024/01/27 03:26:12;;;;;;;;;;;;;;;21.78;22.58;98137.91;5038104;28;1044;-73
2024/01/27 03:28:37;;;;;;;;;;;;;;;21.59;22.90;98131.09;5022089;28;1968;-73
2024/01/27 03:31:03;;;;;;;;;;;;;;;21.59;22.74;98134.72;5022082;28;870;-73
2024/01/27 03:33:31;;;;;;;;;;;;;;;21.44;23.13;98130.63;5014253;28;1090;-74
2024/01/27 03:35:57;;;;;;;;;;;;;;;21.51;23.01;98124.03;5014775;28;893;-74
2024/01/27 03:38:22;;;;;;;;;;;;;;;21.33;23.03;98125.25;5014012;28;846;-73
2024/01/27 03:40:48;;;;;;;;;;;;;;;21.62;22.82;98124.56;4997905;28;791;-73
2024/01/27 03:43:13;;;;;;;;;;;;;;;21.56;22.84;98129.16;4981461;28;1318;-73
2024/01/27 03:45:39;;;;;;;;;;;;;;;21.65;22.92;98123.66;4981824;28;708;-73
2024/01/27 03:48:05;;;;;;;;;;;;;;;21.77;22.80;98117.31;4997654;28;1902;-73
2024/01/27 03:50:30;;;;;;;;;;;;;;;21.39;22.98;98117.00;4997917;28;862;-73
2024/01/27 03:52:56;;;;;;;;;;;;;;;20.97;23.55;98118.78;4997311;28;1274;-73
2024/01/27 03:55:21;;;;;;;;;;;;;;;21.39;23.16;98121.88;4997204;28;1196;-73
2024/01/27 03:57:47;;;;;;;;;;;;;;;21.63;22.73;98126.16;4997593;28;846;-73
2024/01/27 04:00:12;;;;;;;;;;;;;;;21.56;22.94;98126.34;5013841;28;882;-73
2024/01/27 04:02:38;;;;;;;;;;;;;;;21.42;23.35;98129.50;4997847;28;744;-74
2024/01/27 04:05:04;;;;;;;;;;;;;;;21.73;22.70;98124.28;5010266;28;822;-74
2024/01/27 04:07:30;;;;;;;;;;;;;;;21.94;22.53;98135.06;5036851;28;1902;-74
2024/01/27 04:09:55;;;;;;;;;;;;;;;21.86;22.78;98136.47;5035651;28;1054;-74
2024/01/27 04:12:21;;;;;;;;;;;;;;;21.76;22.77;98140.38;5020196;28;1260;-73
2024/01/27 04:14:46;;;;;;;;;;;;;;;21.63;22.98;98143.13;5036651;28;1158;-73
2024/01/27 04:17:12;;;;;;;;;;;;;;;21.40;23.05;98143.28;5036918;28;803;-74
2024/01/27 04:19:37;;;;;;;;;;;;;;;21.46;23.10;98145.16;5019907;28;1570;-73
2024/01/27 04:22:03;;;;;;;;;;;;;;;21.60;22.91;98141.19;5036677;28;927;-73
2024/01/27 04:24:29;;;;;;;;;;;;;;;21.66;22.98;98130.94;4996581;28;1100;-73
2024/01/27 04:26:54;;;;;;;;;;;;;;;21.69;22.92;98124.38;4977406;28;1607;-73
2024/01/27 04:29:20;;;;;;;;;;;;;;;21.58;22.83;98135.16;4993613;28;2005;-73
2024/01/27 04:31:45;;;;;;;;;;;;;;;21.74;22.83;98134.38;4992547;28;900;-73
2024/01/27 04:34:11;;;;;;;;;;;;;;;21.72;22.68;98120.66;4958549;28;1175;-73
2024/01/27 04:36:36;;;;;;;;;;;;;;;21.91;22.59;98118.16;4974451;28;768;-73
2024/01/27 04:39:02;;;;;;;;;;;;;;;21.74;22.84;98132.34;4958323;28;831;-73
2024/01/27 04:41:28;;;;;;;;;;;;;;;21.64;22.97;98133.41;4958352;28;1064;-73
2024/01/27 04:43:56;;;;;;;;;;;;;;;21.08;23.31;98079.72;4954815;29;1251;-73
2024/01/27 04:46:22;;;;;;;;;;;;;;;21.42;22.99;98121.81;4956301;28;964;-73
2024/01/27 04:48:47;;;;;;;;;;;;;;;21.55;22.93;98128.38;4958021;28;1914;-73
2024/01/27 04:51:13;;;;;;;;;;;;;;;21.75;22.82;98118.97;4958291;28;998;-73
2024/01/27 04:53:39;;;;;;;;;;;;;;;21.92;22.64;98114.09;4916596;29;833;-73
2024/01/27 04:56:07;;;;;;;;;;;;;;;21.67;22.88;98104.22;4950224;29;793;-73
2024/01/27 04:58:34;;;;;;;;;;;;;;;21.64;22.73;98112.78;4954448;29;1032;-73
2024/01/27 05:01:00;;;;;;;;;;;;;;;21.41;23.01;98114.56;4939220;29;1016;-74
2024/01/27 05:03:25;;;;;;;;;;;;;;;21.48;23.12;98105.88;4938812;29;1116;-73
2024/01/27 05:05:51;;;;;;;;;;;;;;;21.53;23.13;98104.56;4939028;29;1349;-73
2024/01/27 05:08:16;;;;;;;;;;;;;;;21.58;22.76;98102.00;4954967;29;1993;-74
2024/01/27 05:10:42;;;;;;;;;;;;;;;21.50;22.96;98105.44;4954947;29;980;-74
2024/01/27 05:13:07;;;;;;;;;;;;;;;21.62;23.02;98107.56;4938619;29;1140;-73
2024/01/27 05:15:33;;;;;;;;;;;;;;;21.59;23.01;98106.41;4968456;28;1101;-73
2024/01/27 05:17:58;;;;;;;;;;;;;;;21.61;22.71;98094.66;4977306;28;1140;-74
2024/01/27 05:20:24;;;;;;;;;;;;;;;21.78;22.68;98095.44;4962180;28;1057;-74
2024/01/27 05:22:49;;;;;;;;;;;;;;;21.54;23.11;98089.94;4980832;28;1507;-73
2024/01/27 05:25:16;;;;;;;;;;;;;;;21.38;22.98;98108.97;5026221;28;1033;-73
2024/01/27 05:27:42;;;;;;;;;;;;;;;21.20;23.38;98110.16;5057887;28;1910;-74
2024/01/27 05:30:07;;;;;;;;;;;;;;;21.65;22.71;98111.53;5058862;28;959;-73
2024/01/27 05:32:33;;;;;;;;;;;;;;;21.88;22.74;98113.41;5040811;28;1436;-74
2024/01/27 05:34:59;;;;;;;;;;;;;;;21.68;22.71;98114.28;5040805;28;2292;-73
2024/01/27 05:37:24;;;;;;;;;;;;;;;21.66;22.84;98113.94;5058396;28;963;-74
2024/01/27 05:39:50;;;;;;;;;;;;;;;21.73;22.63;98107.31;5028111;28;1642;-74
2024/01/27 05:42:15;;;;;;;;;;;;;;;21.71;22.69;98102.09;4994111;28;1644;-74
2024/01/27 05:44:41;;;;;;;;;;;;;;;21.85;22.62;98089.56;4973127;28;1326;-74
2024/01/27 05:47:07;;;;;;;;;;;;;;;21.79;22.43;98085.69;5000400;28;1020;-74
2024/01/27 05:49:32;;;;;;;;;;;;;;;21.47;22.82;98083.69;5000170;28;1981;-74
2024/01/27 05:51:58;;;;;;;;;;;;;;;21.33;23.37;98084.81;5000208;28;975;-74
2024/01/27 05:54:24;;;;;;;;;;;;;;;21.66;22.97;98082.81;5000021;28;1044;-75
2024/01/27 05:56:49;;;;;;;;;;;;;;;21.62;22.86;98079.25;4999862;28;1008;-74
2024/01/27 05:59:15;;;;;;;;;;;;;;;21.65;22.64;98089.69;4999899;28;1186;-74
2024/01/27 06:01:40;;;;;;;;;;;;;;;21.70;22.59;98083.47;4967697;28;1182;-74
2024/01/27 06:04:06;;;;;;;;;;;;;;;21.51;22.91;98084.41;4967235;28;1167;-75
2024/01/27 06:06:32;;;;;;;;;;;;;;;21.58;22.90;98078.53;4983652;28;1082;-75
2024/01/27 06:08:58;;;;;;;;;;;;;;;21.76;22.73;98073.22;4999940;28;1902;-75
2024/01/27 06:11:24;;;;;;;;;;;;;;;21.52;22.64;98069.00;4999062;28;961;-74
2024/01/27 06:13:49;;;;;;;;;;;;;;;21.44;23.11;98062.69;5004260;28;1078;-74
2024/01/27 06:16:15;;;;;;;;;;;;;;;21.40;22.79;98055.53;5037860;28;920;-75
2024/01/27 06:18:41;;;;;;;;;;;;;;;21.28;23.15;98060.63;5035070;28;1000;-74
2024/01/27 06:21:06;;;;;;;;;;;;;;;21.35;23.14;98053.22;5003814;28;995;-74
2024/01/27 06:23:32;;;;;;;;;;;;;;;21.45;22.72;98044.50;5004151;28;995;-74
2024/01/27 06:25:57;;;;;;;;;;;;;;;21.65;22.79;98044.38;5019960;28;1225;-75
2024/01/27 06:28:23;;;;;;;;;;;;;;;21.88;22.53;98057.53;5020479;28;1902;-74
2024/01/27 06:30:48;;;;;;;;;;;;;;;21.80;22.45;98062.59;5004324;28;1485;-74
2024/01/27 06:33:14;;;;;;;;;;;;;;;21.72;22.49;98066.84;5037188;28;997;-74
2024/01/27 06:35:40;;;;;;;;;;;;;;;21.71;22.61;98076.59;5020008;28;919;-74
2024/01/27 06:38:05;;;;;;;;;;;;;;;21.85;22.26;98076.19;5037787;28;904;-74
2024/01/27 06:40:31;;;;;;;;;;;;;;;22.02;22.15;98073.34;5037639;28;983;-74
2024/01/27 06:42:56;;;;;;;;;;;;;;;21.88;22.24;98083.03;5037834;28;1216;-74
2024/01/27 06:45:22;;;;;;;;;;;;;;;21.84;22.16;98085.94;5019920;28;894;-75
2024/01/27 06:47:47;;;;;;;;;;;;;;;21.69;22.51;98090.38;5019906;28;1906;-75
2024/01/27 06:50:14;;;;;;;;;;;;;;;21.79;22.46;98078.00;5019870;28;939;-74
2024/01/27 06:52:40;;;;;;;;;;;;;;;21.59;22.86;98080.13;5015292;28;1042;-75
2024/01/27 06:55:06;;;;;;;;;;;;;;;21.70;22.69;98074.97;5015273;28;1013;-74
2024/01/27 06:57:32;;;;;;;;;;;;;;;21.89;22.68;98066.84;4999096;28;976;-74
2024/01/27 06:59:58;;;;;;;;;;;;;;;21.59;22.56;98080.13;5015571;28;1054;-74
2024/01/27 07:02:26;;;;;;;;;;;;;;;21.74;22.38;98069.25;5016192;28;1674;-73
2024/01/27 07:04:52;;;;;;;;;;;;;;;21.69;22.71;98069.78;5018280;28;1068;-73
2024/01/27 07:07:22;;;;;;;;;;;;;;;21.54;22.78;98077.84;5018589;28;1210;-73
2024/01/27 07:09:47;;;;;;;;;;;;;;;21.58;22.61;98073.69;5017857;28;2041;-73
2024/01/27 07:12:13;;;;;;;;;;;;;;;21.61;22.74;98074.84;5014874;28;991;-73
2024/01/27 07:14:38;;;;;;;;;;;;;;;21.70;22.83;98068.53;5015070;28;1023;-73
2024/01/27 07:17:04;;;;;;;;;;;;;;;21.73;22.51;98074.09;4965804;28;1050;-73
2024/01/27 07:19:29;;;;;;;;;;;;;;;21.48;22.83;98079.59;4998385;28;1018;-73
2024/01/27 07:21:55;;;;;;;;;;;;;;;21.57;22.83;98088.28;4982405;28;1108;-73
2024/01/27 07:24:20;;;;;;;;;;;;;;;21.80;22.50;98090.91;5014721;28;1144;-73
2024/01/27 07:26:46;;;;;;;;;;;;;;;21.33;23.15;98091.28;4981781;28;1077;-72
2024/01/27 07:29:11;;;;;;;;;;;;;;;21.27;23.17;98086.56;5014698;28;1910;-73
2024/01/27 07:31:37;;;;;;;;;;;;;;;21.39;23.11;98082.25;4981977;28;1548;-73
2024/01/27 07:34:03;;;;;;;;;;;;;;;21.64;22.78;98085.25;4998251;28;1028;-73
2024/01/27 07:36:32;;;;;;;;;;;;;;;21.69;22.75;98073.41;5014496;28;1071;-74
2024/01/27 07:38:58;;;;;;;;;;;;;;;21.43;23.06;98078.09;4998101;28;1080;-73
2024/01/27 07:41:23;;;;;;;;;;;;;;;21.62;22.69;98073.59;5014367;28;1046;-73
2024/01/27 07:43:49;;;;;;;;;;;;;;;21.67;22.96;98075.09;4973911;28;1333;-73
2024/01/27 07:46:14;;;;;;;;;;;;;;;21.75;22.90;98065.94;4943342;28;1073;-73
2024/01/27 07:48:41;;;;;;;;;;;;;;;21.53;22.84;98070.59;4979077;28;1922;-73
2024/01/27 07:51:06;;;;;;;;;;;;;;;21.17;23.43;98077.06;4997636;28;1026;-73
2024/01/27 07:53:32;;;;;;;;;;;;;;;21.45;23.16;98080.47;4981658;28;1128;-73
2024/01/27 07:55:58;;;;;;;;;;;;;;;21.44;22.91;98067.56;5014057;28;933;-72
2024/01/27 07:58:23;;;;;;;;;;;;;;;21.50;22.94;98071.47;4997639;28;936;-73
2024/01/27 08:00:49;;;;;;;;;;;;;;;21.72;22.69;98060.41;4997905;28;1118;-73
2024/01/27 08:03:14;;;;;;;;;;;;;;;21.75;22.67;98051.78;5013937;28;1029;-73
2024/01/27 08:05:40;;;;;;;;;;;;;;;21.46;23.24;98065.91;5014341;28;929;-74
2024/01/27 08:08:06;;;;;;;;;;;;;;;21.66;22.80;98060.16;4958901;28;1987;-73
2024/01/27 08:10:31;;;;;;;;;;;;;;;21.27;23.08;98061.09;4958650;28;936;-73
2024/01/27 08:12:56;;;;;;;;;;;;;;;20.91;23.63;98052.66;4959191;28;1168;-74
2024/01/27 08:15:22;;;;;;;;;;;;;;;21.48;22.96;98046.44;4958543;28;1012;-73
2024/01/27 08:17:48;;;;;;;;;;;;;;;21.63;22.86;98032.72;4958844;28;986;-73
2024/01/27 08:20:13;;;;;;;;;;;;;;;21.79;22.42;98038.34;4961739;28;972;-73
2024/01/27 08:22:39;;;;;;;;;;;;;;;21.85;22.44;98047.88;4981148;28;1062;-73
2024/01/27 08:25:05;;;;;;;;;;;;;;;21.53;22.95;98054.38;4997704;28;1125;-73
2024/01/27 08:27:30;;;;;;;;;;;;;;;21.82;22.53;98054.44;4997771;28;1987;-73
2024/01/27 08:29:56;;;;;;;;;;;;;;;21.42;23.27;98053.06;4981323;28;1098;-73
2024/01/27 08:32:22;;;;;;;;;;;;;;;21.33;23.40;98060.13;4997183;28;1057;-73
2024/01/27 08:34:47;;;;;;;;;;;;;;;21.28;23.45;98049.31;4997414;28;1046;-74
2024/01/27 08:37:17;;;;;;;;;;;;;;;21.55;22.99;98062.44;4958134;28;1000;-73
2024/01/27 08:39:43;;;;;;;;;;;;;;;21.44;23.24;98061.91;4971752;28;1118;-74
2024/01/27 08:42:09;;;;;;;;;;;;;;;21.56;23.04;98064.03;5013546;28;1012;-73
2024/01/27 08:44:34;;;;;;;;;;;;;;;21.38;23.22;98060.84;4997411;28;1007;-73
2024/01/27 08:46:59;;;;;;;;;;;;;;;21.62;22.89;98062.25;4997266;28;1084;-73
2024/01/27 08:49:25;;;;;;;;;;;;;;;21.73;22.79;98045.78;4997062;28;1906;-73
2024/01/27 08:51:51;;;;;;;;;;;;;;;21.66;22.80;98051.66;4981224;28;1385;-74
2024/01/27 08:54:16;;;;;;;;;;;;;;;21.55;23.22;98051.94;4964844;28;1091;-73
2024/01/27 08:56:42;;;;;;;;;;;;;;;21.18;23.53;98050.38;5000787;28;966;-73
2024/01/27 08:59:07;;;;;;;;;;;;;;;21.43;23.23;98049.78;5000910;28;1290;-73
2024/01/27 09:01:33;;;;;;;;;;;;;;;21.49;23.35;98044.38;5017494;28;1024;-72
2024/01/27 09:03:58;;;;;;;;;;;;;;;21.56;22.93;98030.06;5017168;28;1156;-73
2024/01/27 09:06:24;;;;;;;;;;;;;;;21.72;22.89;98026.41;5000829;28;1102;-73
2024/01/27 09:08:49;;;;;;;;;;;;;;;21.69;22.82;98027.28;4977878;28;1906;-72
2024/01/27 09:11:15;;;;;;;;;;;;;;;21.67;23.05;98024.91;4961859;28;1055;-73
2024/01/27 09:13:40;;;;;;;;;;;;;;;21.73;22.69;98034.47;4966058;28;1133;-73
2024/01/27 09:16:06;;;;;;;;;;;;;;;21.76;22.89;98021.44;4984472;28;1032;-73
2024/01/27 09:18:31;;;;;;;;;;;;;;;21.66;22.88;98033.84;4984423;28;1824;-73
2024/01/27 09:20:57;;;;;;;;;;;;;;;21.58;23.00;98021.91;5001076;28;992;-73
2024/01/27 09:23:22;;;;;;;;;;;;;;;21.53;23.07;98025.28;5000685;28;990;-72
2024/01/27 09:25:48;;;;;;;;;;;;;;;21.31;23.30;98020.16;5017213;28;1303;-73
2024/01/27 09:28:14;;;;;;;;;;;;;;;21.45;23.19;98035.19;5000416;28;1969;-73
2024/01/27 09:30:40;;;;;;;;;;;;;;;21.57;23.08;98028.81;5000691;28;1042;-72
2024/01/27 09:33:05;;;;;;;;;;;;;;;21.72;22.78;98038.53;4980632;28;1147;-73
2024/01/27 09:35:31;;;;;;;;;;;;;;;21.88;22.86;98040.53;4979442;28;1046;-73
2024/01/27 09:37:56;;;;;;;;;;;;;;;21.63;22.96;98034.75;4977515;28;966;-73
2024/01/27 09:40:22;;;;;;;;;;;;;;;21.79;22.73;98037.53;5006123;28;1139;-73
2024/01/27 09:42:51;;;;;;;;;;;;;;;21.87;22.61;98041.78;5016710;28;1009;-73
2024/01/27 09:45:17;;;;;;;;;;;;;;;21.67;22.94;98036.25;4999952;28;1175;-73
2024/01/27 09:47:42;;;;;;;;;;;;;;;21.44;23.23;98044.91;5016402;28;1898;-73
2024/01/27 09:50:09;;;;;;;;;;;;;;;21.61;23.04;98038.03;5016743;28;1220;-74
2024/01/27 09:52:34;;;;;;;;;;;;;;;21.56;23.26;98036.53;5016163;28;925;-73
2024/01/27 09:55:00;;;;;;;;;;;;;;;21.49;23.21;98039.53;5016148;28;1050;-72
2024/01/27 09:57:25;;;;;;;;;;;;;;;21.55;23.21;98042.63;5016511;28;961;-73
2024/01/27 09:59:51;;;;;;;;;;;;;;;21.71;22.72;98036.94;4999911;28;973;-73
2024/01/27 10:02:16;;;;;;;;;;;;;;;21.38;23.47;98043.88;5016362;28;1014;-73
2024/01/27 10:04:43;;;;;;;;;;;;;;;21.44;23.17;98039.25;5035348;28;980;-73
2024/01/27 10:07:08;;;;;;;;;;;;;;;21.25;23.54;98041.72;5022840;28;931;-73
2024/01/27 10:09:34;;;;;;;;;;;;;;;21.28;23.35;98032.34;5024146;28;1910;-72
2024/01/27 10:12:00;;;;;;;;;;;;;;;21.65;22.99;98038.72;5023558;28;1057;-73
2024/01/27 10:14:26;;;;;;;;;;;;;;;21.92;22.89;98035.59;5023975;28;912;-73
2024/01/27 10:16:51;;;;;;;;;;;;;;;21.91;22.81;98033.19;5040050;28;965;-73
2024/01/27 10:19:17;;;;;;;;;;;;;;;21.75;22.78;98028.34;5040545;28;1045;-73
2024/01/27 10:21:43;;;;;;;;;;;;;;;21.63;23.04;98029.88;5023735;28;952;-72
2024/01/27 10:24:09;;;;;;;;;;;;;;;21.84;22.92;98032.13;5023600;28;1019;-73
2024/01/27 10:26:35;;;;;;;;;;;;;;;22.07;22.38;98027.47;5040357;28;1192;-73
2024/01/27 10:29:01;;;;;;;;;;;;;;;21.51;23.06;98027.78;5039971;28;1910;-72
2024/01/27 10:31:27;;;;;;;;;;;;;;;21.33;23.36;98031.84;5039937;28;1459;-73
2024/01/27 10:33:53;;;;;;;;;;;;;;;21.37;23.33;98039.44;5040148;28;954;-72
2024/01/27 10:36:19;;;;;;;;;;;;;;;21.88;23.05;98034.09;5040355;28;1112;-72
2024/01/27 10:38:44;;;;;;;;;;;;;;;21.84;23.00;98034.97;5015508;28;1824;-72
2024/01/27 10:41:10;;;;;;;;;;;;;;;21.79;22.76;98029.84;4999270;28;953;-72
2024/01/27 10:43:36;;;;;;;;;;;;;;;21.93;22.77;98030.72;4999087;28;998;-72
2024/01/27 10:46:02;;;;;;;;;;;;;;;22.01;22.47;98027.22;4999639;28;1032;-72
2024/01/27 10:48:28;;;;;;;;;;;;;;;21.71;23.19;98028.47;4956648;29;1919;-73
2024/01/27 10:50:53;;;;;;;;;;;;;;;21.17;23.86;98031.81;4941175;29;977;-73
2024/01/27 10:53:23;;;;;;;;;;;;;;;21.70;22.97;98021.19;4925069;29;1156;-73
2024/01/27 10:55:48;;;;;;;;;;;;;;;21.51;23.41;98033.44;4940766;29;1128;-73
2024/01/27 10:58:14;;;;;;;;;;;;;;;21.57;23.17;98034.50;4940920;29;1055;-73
2024/01/27 11:00:39;;;;;;;;;;;;;;;21.83;23.07;98036.22;4941024;29;1058;-73
2024/01/27 11:03:05;;;;;;;;;;;;;;;21.67;23.06;98030.59;4940788;29;1050;-73
2024/01/27 11:05:31;;;;;;;;;;;;;;;21.75;23.21;98026.31;4940867;29;994;-72
2024/01/27 11:07:57;;;;;;;;;;;;;;;21.84;22.87;98032.13;4924880;29;1907;-73
2024/01/27 11:10:23;;;;;;;;;;;;;;;21.59;23.20;98017.84;4969894;28;976;-72
2024/01/27 11:12:48;;;;;;;;;;;;;;;21.23;23.64;98018.72;4995412;28;1004;-72
2024/01/27 11:15:14;;;;;;;;;;;;;;;21.41;23.66;98023.19;4995179;28;1053;-73
2024/01/27 11:17:41;;;;;;;;;;;;;;;21.62;23.17;98011.31;4995109;28;967;-73
2024/01/27 11:20:11;;;;;;;;;;;;;;;21.63;23.12;98007.22;4979082;28;1019;-72
2024/01/27 11:22:37;;;;;;;;;;;;;;;21.64;23.22;98008.81;4994875;28;1055;-72
2024/01/27 11:25:08;;;;;;;;;;;;;;;21.95;22.97;98008.38;5003736;28;1082;-73
2024/01/27 11:27:34;;;;;;;;;;;;;;;21.74;22.97;98013.38;5038300;28;1971;-73
2024/01/27 11:30:00;;;;;;;;;;;;;;;21.49;23.23;98013.25;5022435;28;1095;-73
2024/01/27 11:32:26;;;;;;;;;;;;;;;21.35;23.53;98019.28;5056508;28;902;-73
2024/01/27 11:34:51;;;;;;;;;;;;;;;21.52;23.51;98024.50;5022588;28;980;-73
2024/01/27 11:37:17;;;;;;;;;;;;;;;21.59;23.12;98018.63;5022421;28;943;-73
2024/01/27 11:39:43;;;;;;;;;;;;;;;21.56;23.44;98036.53;5038646;28;1260;-73
2024/01/27 11:42:10;;;;;;;;;;;;;;;21.81;22.93;98029.38;5038503;28;1102;-72
2024/01/27 11:44:39;;;;;;;;;;;;;;;21.63;23.46;98029.88;4997746;28;995;-73
2024/01/27 11:47:05;;;;;;;;;;;;;;;21.76;23.05;98027.91;4978337;28;1147;-72
2024/01/27 11:49:30;;;;;;;;;;;;;;;21.75;22.97;98019.84;4978324;28;1918;-73
2024/01/27 11:51:56;;;;;;;;;;;;;;;21.51;23.36;98033.44;4975094;28;970;-73
2024/01/27 11:54:21;;;;;;;;;;;;;;;21.14;23.87;98026.22;4975088;28;988;-73
2024/01/27 11:56:47;;;;;;;;;;;;;;;21.41;23.51;98023.19;4936527;29;946;-73
2024/01/27 11:59:12;;;;;;;;;;;;;;;21.64;23.08;98031.47;4936512;29;997;-73
2024/01/27 12:01:38;;;;;;;;;;;;;;;21.56;23.27;98041.41;4920645;29;1016;-73
2024/01/27 12:04:04;;;;;;;;;;;;;;;21.73;23.11;98040.13;4904923;29;1078;-73
2024/01/27 12:06:30;;;;;;;;;;;;;;;21.85;22.92;98033.72;4904985;29;948;-73
2024/01/27 12:08:57;;;;;;;;;;;;;;;21.67;23.36;98041.91;4936613;29;1974;-73
2024/01/27 12:11:25;;;;;;;;;;;;;;;21.40;23.46;98039.38;4920526;29;1114;-72
2024/01/27 12:13:51;;;;;;;;;;;;;;;21.09;23.84;98036.06;4936477;29;1068;-74
2024/01/27 12:16:17;;;;;;;;;;;;;;;21.61;23.41;98038.03;4919704;29;1023;-72
2024/01/27 12:18:43;;;;;;;;;;;;;;;21.63;23.33;98041.19;4958764;28;976;-73
2024/01/27 12:21:08;;;;;;;;;;;;;;;21.55;23.50;98034.94;4974736;28;1121;-73
2024/01/27 12:23:34;;;;;;;;;;;;;;;21.65;23.15;98044.38;4974383;28;1125;-72
2024/01/27 12:26:00;;;;;;;;;;;;;;;21.12;23.96;98042.84;4974607;28;1227;-72
2024/01/27 12:28:25;;;;;;;;;;;;;;;20.97;24.14;98045.22;5008850;28;1930;-72
2024/01/27 12:30:51;;;;;;;;;;;;;;;21.40;23.65;98049.88;5037222;28;1353;-73
2024/01/27 12:33:19;;;;;;;;;;;;;;;21.37;23.68;98043.06;5021629;28;984;-73
2024/01/27 12:35:45;;;;;;;;;;;;;;;21.51;23.41;98051.22;5038345;28;1207;-73
2024/01/27 12:38:11;;;;;;;;;;;;;;;21.63;23.19;98054.56;5021450;28;1007;-72
2024/01/27 12:40:37;;;;;;;;;;;;;;;21.67;23.45;98056.06;5038008;28;1022;-73
2024/01/27 12:43:03;;;;;;;;;;;;;;;21.67;23.18;98058.09;5021069;28;1108;-73
2024/01/27 12:45:28;;;;;;;;;;;;;;;21.73;23.10;98062.78;5038121;28;938;-72
2024/01/27 12:47:54;;;;;;;;;;;;;;;21.52;23.39;98064.13;5037632;28;1981;-73
2024/01/27 12:50:20;;;;;;;;;;;;;;;21.60;23.46;98061.91;5037760;28;931;-73
2024/01/27 12:52:45;;;;;;;;;;;;;;;21.47;23.58;98067.50;5021442;28;1380;-73